Time;durP1;ratioP1;P1;durP2;ratioP2;P2;SDS_P1;SDS_P2;PMS_P1;PMS_P2;Temp;Humidity;BMP_temperature;BMP_pressure;BME280_temperature;BME280_humidity;BME280_pressure;Samples;Min_cycle;Max_cycle;Signal;HPM_P1;HPM_P2
2023/12/26 00:02:32;;;;;;;;;;;17.50;68.60;;;;;;10268299;28;92429;-45
2023/12/26 00:07:34;;;;;;;;;;;17.50;68.70;;;;;;10260050;28;94610;-49
2023/12/26 00:12:35;;;;;;;;;;;17.50;68.30;;;;;;10281797;28;95112;-46
2023/12/26 00:17:38;;;;;;;;;;;17.50;67.80;;;;;;10281991;28;95724;-48
2023/12/26 00:22:40;;;;;;;;;;;17.50;67.60;;;;;;10283514;28;93546;-44
2023/12/26 00:27:42;;;;;;;;;;;17.40;67.10;;;;;;10266725;28;94075;-45
2023/12/26 00:32:44;;;;;;;;;;;17.40;66.90;;;;;;10275069;28;93319;-44
2023/12/26 00:37:46;;;;;;;;;;;17.40;66.50;;;;;;10264612;28;94411;-44
2023/12/26 00:42:47;;;;;;;;;;;17.40;66.30;;;;;;10250899;28;95580;-44
2023/12/26 00:47:49;;;;;;;;;;;17.40;66.10;;;;;;10281395;28;94890;-44
2023/12/26 00:52:51;;;;;;;;;;;17.40;66.40;;;;;;10273406;28;92747;-45
2023/12/26 00:57:53;;;;;;;;;;;17.40;66.90;;;;;;10274664;28;94071;-45
2023/12/26 01:02:55;;;;;;;;;;;17.30;66.90;;;;;;10259215;28;94493;-45
2023/12/26 01:07:57;;;;;;;;;;;17.30;66.80;;;;;;10275218;28;95769;-45
2023/12/26 01:12:59;;;;;;;;;;;17.30;66.40;;;;;;10285242;28;94050;-48
2023/12/26 01:18:00;;;;;;;;;;;17.30;66.10;;;;;;10261760;28;93453;-46
2023/12/26 01:23:03;;;;;;;;;;;17.30;65.80;;;;;;10268140;28;93430;-45
2023/12/26 01:28:05;;;;;;;;;;;17.30;65.50;;;;;;10264203;28;93336;-44
2023/12/26 01:33:07;;;;;;;;;;;17.40;65.30;;;;;;10252082;28;93479;-44
2023/12/26 01:38:08;;;;;;;;;;;17.40;66.10;;;;;;10266850;28;94656;-48
2023/12/26 01:43:10;;;;;;;;;;;17.30;64.80;;;;;;10255072;28;92744;-45
2023/12/26 01:48:12;;;;;;;;;;;17.30;65.30;;;;;;10278860;28;94591;-47
2023/12/26 01:53:14;;;;;;;;;;;17.30;65.80;;;;;;10263285;28;93938;-46
2023/12/26 01:58:17;;;;;;;;;;;17.30;65.90;;;;;;10253086;28;95859;-46
2023/12/26 02:03:19;;;;;;;;;;;17.30;65.40;;;;;;10637408;22;96451;-44
2023/12/26 02:08:21;;;;;;;;;;;17.30;65.10;;;;;;10242740;28;95103;-45
2023/12/26 02:13:23;;;;;;;;;;;17.30;64.80;;;;;;10267996;28;94326;-44
2023/12/26 02:18:25;;;;;;;;;;;17.30;64.50;;;;;;10280726;28;94706;-49
2023/12/26 02:23:27;;;;;;;;;;;17.40;64.30;;;;;;10243772;28;93694;-47
2023/12/26 02:28:30;;;;;;;;;;;17.40;64.10;;;;;;10272320;28;95556;-47
2023/12/26 02:33:32;;;;;;;;;;;17.30;63.70;;;;;;10269701;28;93726;-43
2023/12/26 02:38:34;;;;;;;;;;;17.30;63.60;;;;;;10281312;28;93990;-44
2023/12/26 02:43:36;;;;;;;;;;;17.30;64.20;;;;;;10278724;28;93536;-44
2023/12/26 02:48:37;;;;;;;;;;;17.30;64.80;;;;;;10274595;28;96425;-45
2023/12/26 02:53:39;;;;;;;;;;;17.30;64.70;;;;;;10287434;28;93557;-45
2023/12/26 02:58:41;;;;;;;;;;;17.20;64.30;;;;;;10283226;28;94463;-45
2023/12/26 03:03:43;;;;;;;;;;;17.30;64.20;;;;;;10280456;28;93414;-49
2023/12/26 03:08:45;;;;;;;;;;;17.20;63.80;;;;;;10286320;28;94497;-44
2023/12/26 03:13:46;;;;;;;;;;;17.20;63.60;;;;;;10281204;28;94777;-47
2023/12/26 03:18:48;;;;;;;;;;;17.20;63.30;;;;;;10282363;28;94549;-45
2023/12/26 03:23:51;;;;;;;;;;;17.20;63.20;;;;;;10274925;28;93313;-43
2023/12/26 03:28:52;;;;;;;;;;;17.20;63.00;;;;;;10274875;28;93432;-43
2023/12/26 03:33:55;;;;;;;;;;;17.20;62.80;;;;;;10285945;28;94679;-43
2023/12/26 03:38:57;;;;;;;;;;;17.20;63.50;;;;;;10284347;28;96007;-44
2023/12/26 03:43:59;;;;;;;;;;;17.10;64.00;;;;;;10256141;28;94020;-45
2023/12/26 03:49:01;;;;;;;;;;;17.10;63.80;;;;;;10278925;28;93256;-46
2023/12/26 03:54:03;;;;;;;;;;;17.10;63.60;;;;;;10284527;28;93308;-44
2023/12/26 03:59:06;;;;;;;;;;;17.20;63.30;;;;;;10283953;28;94074;-49
2023/12/26 04:04:07;;;;;;;;;;;17.20;63.10;;;;;;10280269;28;92544;-45
2023/12/26 04:09:10;;;;;;;;;;;17.10;62.70;;;;;;10284989;28;93432;-45
2023/12/26 04:14:12;;;;;;;;;;;17.10;62.60;;;;;;10285340;28;94324;-44
2023/12/26 04:19:14;;;;;;;;;;;17.10;62.30;;;;;;10301811;28;93425;-44
2023/12/26 04:24:16;;;;;;;;;;;17.10;62.20;;;;;;10272239;28;94914;-48
2023/12/26 04:29:17;;;;;;;;;;;17.10;62.20;;;;;;10266972;28;96766;-46
2023/12/26 04:34:19;;;;;;;;;;;17.10;62.70;;;;;;10262826;28;94098;-46
2023/12/26 04:39:22;;;;;;;;;;;17.10;63.30;;;;;;10268036;28;93514;-46
2023/12/26 04:44:24;;;;;;;;;;;17.00;63.50;;;;;;10263631;28;94019;-45
2023/12/26 04:49:26;;;;;;;;;;;17.00;63.70;;;;;;10275969;28;94411;-44
2023/12/26 04:54:27;;;;;;;;;;;17.00;63.90;;;;;;10274726;28;93653;-45
2023/12/26 04:59:29;;;;;;;;;;;17.00;64.10;;;;;;10284862;28;94884;-44
2023/12/26 05:04:31;;;;;;;;;;;16.90;64.30;;;;;;10282045;28;93972;-44
2023/12/26 05:09:32;;;;;;;;;;;16.90;64.50;;;;;;10282026;28;93441;-45
2023/12/26 05:14:34;;;;;;;;;;;16.90;64.60;;;;;;10276319;28;94376;-45
2023/12/26 05:19:38;;;;;;;;;;;16.90;64.70;;;;;;10270413;28;96481;-46
2023/12/26 05:24:40;;;;;;;;;;;16.90;64.80;;;;;;10273596;28;94829;-43
2023/12/26 05:29:52;;;;;;;;;;;16.90;64.90;;;;;;10276630;28;94167;-43
2023/12/26 05:34:55;;;;;;;;;;;16.90;65.00;;;;;;10272616;28;92912;-44
2023/12/26 05:39:56;;;;;;;;;;;16.90;65.10;;;;;;10276801;28;93452;-43
2023/12/26 05:44:58;;;;;;;;;;;16.90;65.20;;;;;;10277733;28;94413;-44
2023/12/26 05:50:00;;;;;;;;;;;16.90;65.40;;;;;;10258456;28;94868;-46
2023/12/26 05:55:03;;;;;;;;;;;17.00;65.30;;;;;;10258853;28;94021;-60
2023/12/26 06:00:05;;;;;;;;;;;17.10;65.10;;;;;;10266907;28;93590;-46
2023/12/26 06:05:07;;;;;;;;;;;17.20;64.90;;;;;;10245103;28;93681;-45
2023/12/26 06:10:09;;;;;;;;;;;17.30;64.70;;;;;;10258617;28;95881;-44
2023/12/26 06:15:11;;;;;;;;;;;17.30;64.60;;;;;;10254071;28;94455;-45
2023/12/26 06:20:14;;;;;;;;;;;17.40;64.50;;;;;;10269052;28;93474;-46
2023/12/26 06:25:17;;;;;;;;;;;17.40;64.40;;;;;;10276656;28;93494;-57
2023/12/26 06:30:18;;;;;;;;;;;17.30;64.40;;;;;;10274887;28;93386;-44
2023/12/26 06:35:20;;;;;;;;;;;17.30;64.40;;;;;;10266436;28;94566;-44
2023/12/26 06:40:22;;;;;;;;;;;17.30;64.40;;;;;;10275728;28;93457;-59
2023/12/26 06:45:23;;;;;;;;;;;17.30;64.40;;;;;;10283798;28;92652;-46
2023/12/26 06:50:25;;;;;;;;;;;17.30;64.50;;;;;;10280846;28;93512;-47
2023/12/26 06:55:27;;;;;;;;;;;17.20;64.50;;;;;;10271101;28;93951;-44
2023/12/26 07:00:29;;;;;;;;;;;17.20;64.60;;;;;;10274012;28;96384;-44
2023/12/26 07:05:30;;;;;;;;;;;17.20;64.60;;;;;;10256054;28;93589;-44
2023/12/26 07:10:32;;;;;;;;;;;17.20;64.70;;;;;;10270788;28;94908;-49
2023/12/26 07:15:34;;;;;;;;;;;17.10;64.80;;;;;;10286401;28;93452;-44
2023/12/26 07:20:36;;;;;;;;;;;17.10;64.80;;;;;;10288279;28;94879;-46
2023/12/26 07:25:37;;;;;;;;;;;17.10;64.90;;;;;;10272396;28;94919;-46
2023/12/26 07:30:39;;;;;;;;;;;17.10;65.00;;;;;;10265068;28;94461;-45
2023/12/26 07:35:41;;;;;;;;;;;17.00;65.00;;;;;;10286860;28;92854;-44
2023/12/26 07:40:43;;;;;;;;;;;17.00;65.10;;;;;;10283328;28;94320;-44
2023/12/26 07:45:44;;;;;;;;;;;17.00;65.30;;;;;;10265521;28;94397;-44
2023/12/26 07:50:46;;;;;;;;;;;16.90;65.30;;;;;;10276179;28;96659;-46
2023/12/26 07:55:48;;;;;;;;;;;16.90;65.40;;;;;;10257243;28;94690;-49
2023/12/26 08:00:50;;;;;;;;;;;16.90;65.50;;;;;;10271541;28;93443;-48
2023/12/26 08:05:52;;;;;;;;;;;16.90;65.60;;;;;;10277940;28;93298;-48
2023/12/26 08:10:54;;;;;;;;;;;16.90;65.70;;;;;;10271968;28;94784;-47
2023/12/26 08:15:56;;;;;;;;;;;16.90;65.90;;;;;;10281099;28;93937;-46
2023/12/26 08:20:58;;;;;;;;;;;16.80;66.90;;;;;;10278788;28;94066;-43
2023/12/26 08:26:00;;;;;;;;;;;16.80;66.90;;;;;;10282174;28;92958;-44
2023/12/26 08:31:02;;;;;;;;;;;16.90;67.10;;;;;;10272999;28;93256;-45
2023/12/26 08:36:04;;;;;;;;;;;16.90;67.40;;;;;;10277549;28;94449;-44
2023/12/26 08:41:06;;;;;;;;;;;16.80;67.40;;;;;;10281026;28;96893;-43
2023/12/26 08:46:08;;;;;;;;;;;16.90;67.50;;;;;;10285204;28;94408;-45
2023/12/26 08:51:10;;;;;;;;;;;16.90;67.50;;;;;;10268282;28;93466;-46
2023/12/26 08:56:12;;;;;;;;;;;16.90;67.50;;;;;;10276697;28;94384;-48
2023/12/26 09:01:14;;;;;;;;;;;16.90;67.40;;;;;;10277434;28;93317;-44
2023/12/26 09:06:17;;;;;;;;;;;16.90;67.00;;;;;;10280763;28;94760;-44
2023/12/26 09:11:19;;;;;;;;;;;16.90;66.80;;;;;;10281430;28;93502;-44
2023/12/26 09:16:20;;;;;;;;;;;16.80;66.70;;;;;;10281108;28;93693;-47
2023/12/26 09:21:22;;;;;;;;;;;16.80;66.70;;;;;;10259435;28;94500;-44
2023/12/26 09:26:24;;;;;;;;;;;16.80;66.80;;;;;;10281267;28;94954;-48
2023/12/26 09:31:26;;;;;;;;;;;16.80;66.70;;;;;;10266545;28;95808;-43
2023/12/26 09:36:28;;;;;;;;;;;16.80;66.80;;;;;;10279140;28;94695;-47
2023/12/26 09:41:30;;;;;;;;;;;16.80;66.80;;;;;;10297892;28;94563;-43
2023/12/26 09:46:31;;;;;;;;;;;16.80;66.70;;;;;;10282315;28;93468;-49
2023/12/26 09:51:37;;;;;;;;;;;16.80;66.70;;;;;;10282029;28;94598;-43
2023/12/26 09:56:42;;;;;;;;;;;16.80;66.60;;;;;;10285029;28;93504;-44
2023/12/26 10:01:44;;;;;;;;;;;16.80;67.50;;;;;;10256355;28;94625;-48
2023/12/26 10:06:46;;;;;;;;;;;16.80;66.50;;;;;;10286427;28;93250;-49
2023/12/26 10:11:51;;;;;;;;;;;16.80;66.50;;;;;;10279875;28;94426;-42
2023/12/26 10:16:54;;;;;;;;;;;16.80;66.50;;;;;;10278078;28;94439;-69
2023/12/26 10:21:56;;;;;;;;;;;16.80;66.40;;;;;;10276394;28;96158;-44
2023/12/26 10:26:58;;;;;;;;;;;16.80;66.40;;;;;;10272585;28;93504;-44
2023/12/26 10:32:01;;;;;;;;;;;16.80;66.50;;;;;;10273377;28;94341;-45
2023/12/26 10:37:03;;;;;;;;;;;16.70;66.40;;;;;;10261236;28;94247;-45
2023/12/26 10:42:05;;;;;;;;;;;16.70;66.30;;;;;;10257452;28;93577;-44
2023/12/26 10:47:06;;;;;;;;;;;16.70;66.40;;;;;;10246945;28;93427;-46
2023/12/26 10:52:10;;;;;;;;;;;16.70;66.40;;;;;;10256711;28;94505;-46
2023/12/26 10:57:13;;;;;;;;;;;16.70;66.30;;;;;;10281854;28;92925;-44
2023/12/26 11:02:15;;;;;;;;;;;16.70;66.30;;;;;;10277230;28;93594;-43
2023/12/26 11:07:17;;;;;;;;;;;16.70;66.30;;;;;;10302571;28;93461;-49
2023/12/26 11:12:19;;;;;;;;;;;16.70;66.40;;;;;;10282538;28;95087;-46
2023/12/26 11:17:21;;;;;;;;;;;16.70;66.20;;;;;;10279708;28;93610;-45
2023/12/26 11:22:23;;;;;;;;;;;16.70;66.20;;;;;;10260641;28;93127;-45
2023/12/26 11:27:25;;;;;;;;;;;16.60;66.10;;;;;;10282466;28;94547;-45
2023/12/26 11:32:27;;;;;;;;;;;16.60;66.30;;;;;;10286298;28;93427;-44
2023/12/26 11:37:29;;;;;;;;;;;16.60;66.40;;;;;;10279176;28;92622;-45
2023/12/26 11:42:31;;;;;;;;;;;16.60;66.50;;;;;;10272849;28;94911;-45
2023/12/26 11:47:32;;;;;;;;;;;16.60;66.60;;;;;;10279835;28;93162;-44
2023/12/26 11:52:34;;;;;;;;;;;16.60;66.70;;;;;;10279189;28;94186;-43
2023/12/26 11:57:36;;;;;;;;;;;16.60;66.70;;;;;;10288856;28;94696;-44
2023/12/26 12:02:38;;;;;;;;;;;16.60;66.80;;;;;;10285439;28;95025;-46
2023/12/26 12:07:39;;;;;;;;;;;16.60;66.70;;;;;;10278711;28;93827;-50
2023/12/26 12:12:42;;;;;;;;;;;16.60;66.70;;;;;;10275273;28;94414;-49
2023/12/26 12:17:47;;;;;;;;;;;16.60;66.70;;;;;;10276359;28;94442;-44
2023/12/26 12:22:48;;;;;;;;;;;16.60;66.70;;;;;;10251193;28;93398;-45
2023/12/26 12:28:08;;;;;;;;;;;16.60;66.70;;;;;;10285864;28;93422;-44
2023/12/26 12:33:22;;;;;;;;;;;16.50;66.70;;;;;;10286621;28;94475;-43
2023/12/26 12:38:24;;;;;;;;;;;16.50;66.70;;;;;;10287526;28;93542;-44
2023/12/26 12:43:26;;;;;;;;;;;16.50;66.60;;;;;;10285781;28;94444;-44
2023/12/26 12:48:27;;;;;;;;;;;16.50;66.60;;;;;;10274555;28;94106;-47
2023/12/26 12:53:29;;;;;;;;;;;16.50;66.60;;;;;;10258456;28;96577;-44
2023/12/26 12:58:31;;;;;;;;;;;16.50;66.50;;;;;;10272575;28;93394;-45
2023/12/26 13:03:33;;;;;;;;;;;16.50;66.50;;;;;;10257748;28;94348;-45
2023/12/26 13:08:35;;;;;;;;;;;16.50;66.40;;;;;;10273360;28;93435;-45
2023/12/26 13:13:37;;;;;;;;;;;16.50;66.40;;;;;;10278872;28;94396;-48
2023/12/26 13:18:39;;;;;;;;;;;16.50;66.50;;;;;;10276101;28;94500;-48
2023/12/26 13:23:43;;;;;;;;;;;16.50;66.40;;;;;;10276040;28;93441;-45
2023/12/26 13:28:45;;;;;;;;;;;16.50;66.40;;;;;;10269892;28;93147;-44
2023/12/26 13:33:46;;;;;;;;;;;16.50;66.40;;;;;;10282526;28;94759;-49
2023/12/26 13:38:48;;;;;;;;;;;16.50;66.30;;;;;;10270074;28;94469;-46
2023/12/26 13:43:50;;;;;;;;;;;16.50;66.40;;;;;;10277821;28;97965;-45
2023/12/26 13:48:52;;;;;;;;;;;16.50;66.30;;;;;;10283026;28;94375;-45
2023/12/26 13:53:54;;;;;;;;;;;16.50;66.30;;;;;;10279563;28;93447;-48
2023/12/26 13:58:56;;;;;;;;;;;16.50;66.30;;;;;;10278044;28;92802;-43
2023/12/26 14:03:58;;;;;;;;;;;16.50;66.40;;;;;;10279225;28;94471;-49
2023/12/26 14:08:59;;;;;;;;;;;16.50;66.30;;;;;;10283635;28;93775;-43
2023/12/26 14:14:01;;;;;;;;;;;16.50;66.30;;;;;;10282230;28;94668;-46
2023/12/26 14:19:03;;;;;;;;;;;16.50;66.30;;;;;;10282819;28;94186;-49
2023/12/26 14:24:05;;;;;;;;;;;16.50;66.30;;;;;;10281233;28;93730;-46
2023/12/26 14:29:07;;;;;;;;;;;16.50;66.30;;;;;;10284023;28;94683;-47
2023/12/26 14:34:09;;;;;;;;;;;16.40;66.30;;;;;;10274330;28;95997;-49
2023/12/26 14:39:12;;;;;;;;;;;16.40;66.40;;;;;;10274077;28;93485;-46
2023/12/26 14:44:14;;;;;;;;;;;16.40;66.40;;;;;;10279723;28;94524;-50
2023/12/26 14:49:16;;;;;;;;;;;16.40;66.50;;;;;;10280267;28;92671;-43
2023/12/26 14:54:18;;;;;;;;;;;16.40;66.40;;;;;;10285356;28;93864;-49
2023/12/26 14:59:20;;;;;;;;;;;16.40;66.40;;;;;;10286005;28;92837;-44
2023/12/26 15:04:23;;;;;;;;;;;16.40;66.40;;;;;;10276095;28;93860;-46
2023/12/26 15:09:24;;;;;;;;;;;16.40;66.40;;;;;;10282717;28;92630;-45
2023/12/26 15:14:27;;;;;;;;;;;16.40;66.40;;;;;;10282782;28;94432;-45
2023/12/26 15:19:44;;;;;;;;;;;16.40;66.40;;;;;;10283830;28;94545;-46
2023/12/26 15:24:46;;;;;;;;;;;16.30;66.40;;;;;;10270823;28;95873;-45
2023/12/26 15:29:48;;;;;;;;;;;16.30;66.30;;;;;;10273258;28;94368;-45
2023/12/26 15:34:50;;;;;;;;;;;16.30;66.30;;;;;;10275407;28;94472;-44
2023/12/26 15:39:51;;;;;;;;;;;16.30;66.30;;;;;;10269282;28;93571;-44
2023/12/26 15:44:53;;;;;;;;;;;16.30;66.40;;;;;;10267481;28;93725;-44
2023/12/26 15:49:55;;;;;;;;;;;16.30;66.30;;;;;;10280764;28;93959;-48
2023/12/26 15:54:57;;;;;;;;;;;16.30;66.30;;;;;;10271444;28;92801;-44
2023/12/26 15:59:59;;;;;;;;;;;16.30;67.30;;;;;;10282130;28;92785;-44
2023/12/26 16:05:00;;;;;;;;;;;16.30;66.20;;;;;;10275536;28;94215;-45
2023/12/26 16:10:03;;;;;;;;;;;16.30;66.20;;;;;;10280803;28;94472;-45
2023/12/26 16:15:05;;;;;;;;;;;16.30;66.20;;;;;;10261594;28;96974;-45
2023/12/26 16:20:07;;;;;;;;;;;16.30;66.20;;;;;;10270779;28;93632;-48
2023/12/26 16:25:09;;;;;;;;;;;16.30;66.20;;;;;;10285860;28;94460;-51
2023/12/26 16:30:11;;;;;;;;;;;16.30;66.10;;;;;;10276866;28;93148;-48
2023/12/26 16:35:13;;;;;;;;;;;16.30;66.10;;;;;;10273148;28;93051;-44
2023/12/26 16:40:15;;;;;;;;;;;16.30;66.00;;;;;;10281468;28;93571;-45
2023/12/26 16:45:17;;;;;;;;;;;16.30;65.90;;;;;;10282265;28;93926;-45
2023/12/26 16:50:19;;;;;;;;;;;16.20;65.90;;;;;;10253538;28;93308;-47
2023/12/26 16:55:20;;;;;;;;;;;16.20;65.90;;;;;;10264294;28;93458;-44
2023/12/26 17:00:22;;;;;;;;;;;16.20;65.80;;;;;;10256639;28;93440;-47
2023/12/26 17:05:24;;;;;;;;;;;16.20;65.80;;;;;;10259578;28;96886;-45
2023/12/26 17:10:25;;;;;;;;;;;16.20;65.80;;;;;;10277126;28;94103;-52
2023/12/26 17:15:27;;;;;;;;;;;16.20;65.70;;;;;;10267012;28;94415;-46
2023/12/26 17:20:30;;;;;;;;;;;16.20;65.70;;;;;;10262985;28;94682;-44
2023/12/26 17:25:36;;;;;;;;;;;16.20;65.70;;;;;;10285356;28;93338;-44
2023/12/26 17:30:38;;;;;;;;;;;16.20;65.80;;;;;;10271775;28;94393;-44
2023/12/26 17:35:40;;;;;;;;;;;16.20;65.60;;;;;;10268182;28;97668;-45
2023/12/26 17:40:41;;;;;;;;;;;16.20;65.60;;;;;;10271003;28;94032;-47
2023/12/26 17:45:43;;;;;;;;;;;16.20;65.50;;;;;;10279394;28;94481;-47
2023/12/26 17:50:45;;;;;;;;;;;16.30;65.50;;;;;;10276070;28;94468;-43
2023/12/26 17:55:47;;;;;;;;;;;16.30;65.40;;;;;;10279016;28;95904;-48
2023/12/26 18:00:48;;;;;;;;;;;16.30;65.40;;;;;;10283627;28;93972;-43
2023/12/26 18:05:50;;;;;;;;;;;16.20;65.30;;;;;;10281061;28;96107;-44
2023/12/26 18:10:54;;;;;;;;;;;16.20;65.30;;;;;;10281034;28;114037;-46
2023/12/26 18:15:56;;;;;;;;;;;16.20;65.20;;;;;;10290590;28;93608;-46
2023/12/26 18:20:59;;;;;;;;;;;16.20;65.20;;;;;;10290061;28;93123;-46
2023/12/26 18:26:01;;;;;;;;;;;16.20;65.20;;;;;;10284357;28;93494;-47
2023/12/26 18:31:06;;;;;;;;;;;16.20;65.20;;;;;;10289762;28;92728;-44
2023/12/26 18:36:08;;;;;;;;;;;16.20;65.20;;;;;;10280360;28;94382;-46
2023/12/26 18:41:12;;;;;;;;;;;16.20;65.20;;;;;;10280742;28;93315;-46
2023/12/26 18:46:13;;;;;;;;;;;16.20;65.20;;;;;;10270725;28;97182;-44
2023/12/26 18:51:22;;;;;;;;;;;16.20;65.20;;;;;;10285403;28;94489;-45
2023/12/26 18:56:27;;;;;;;;;;;16.20;65.20;;;;;;10289333;28;93551;-49
2023/12/26 19:01:29;;;;;;;;;;;16.10;65.10;;;;;;10277125;28;93449;-44
2023/12/26 19:06:32;;;;;;;;;;;16.10;65.20;;;;;;10281597;28;93493;-45
2023/12/26 19:11:34;;;;;;;;;;;16.10;65.20;;;;;;10287432;28;94612;-44
2023/12/26 19:16:36;;;;;;;;;;;16.10;65.20;;;;;;10262976;28;94930;-45
2023/12/26 19:21:38;;;;;;;;;;;16.10;65.20;;;;;;10294647;28;93602;-44
2023/12/26 19:26:40;;;;;;;;;;;16.10;65.20;;;;;;10280401;28;93568;-44
2023/12/26 19:31:42;;;;;;;;;;;16.10;65.20;;;;;;10276715;28;93438;-45
2023/12/26 19:36:44;;;;;;;;;;;16.10;65.20;;;;;;10274801;28;96835;-45
2023/12/26 19:41:46;;;;;;;;;;;16.00;65.10;;;;;;10286947;28;94396;-47
2023/12/26 19:46:48;;;;;;;;;;;16.10;65.20;;;;;;10284068;28;94634;-46
2023/12/26 19:51:50;;;;;;;;;;;16.10;65.20;;;;;;10272161;28;94370;-48
2023/12/26 19:56:52;;;;;;;;;;;16.10;65.20;;;;;;10287166;28;94640;-44
2023/12/26 20:01:54;;;;;;;;;;;16.00;65.10;;;;;;10275186;28;94621;-46
2023/12/26 20:06:56;;;;;;;;;;;16.00;65.10;;;;;;10270436;28;93491;-44
2023/12/26 20:11:58;;;;;;;;;;;16.00;65.10;;;;;;10280009;28;93115;-44
2023/12/26 20:17:00;;;;;;;;;;;16.00;65.10;;;;;;10285304;28;94785;-44
2023/12/26 20:22:01;;;;;;;;;;;16.00;65.10;;;;;;10278776;28;95334;-44
2023/12/26 20:27:03;;;;;;;;;;;16.00;65.10;;;;;;10273396;28;95789;-51
2023/12/26 20:32:06;;;;;;;;;;;16.00;65.10;;;;;;10252303;28;93858;-46
2023/12/26 20:37:08;;;;;;;;;;;16.00;65.10;;;;;;10256204;28;94033;-48
2023/12/26 20:42:09;;;;;;;;;;;15.90;65.10;;;;;;10264397;28;93461;-44
2023/12/26 20:47:11;;;;;;;;;;;15.90;65.10;;;;;;10250852;28;93937;-44
2023/12/26 20:52:13;;;;;;;;;;;15.90;65.00;;;;;;10272012;28;94437;-45
2023/12/26 20:57:15;;;;;;;;;;;15.90;66.10;;;;;;10282946;28;94666;-46
2023/12/26 21:02:16;;;;;;;;;;;15.90;65.00;;;;;;10285879;28;93768;-44
2023/12/26 21:07:18;;;;;;;;;;;15.90;65.00;;;;;;10279334;28;93436;-43
2023/12/26 21:12:20;;;;;;;;;;;15.90;65.00;;;;;;10280928;28;94661;-44
2023/12/26 21:17:22;;;;;;;;;;;15.90;65.00;;;;;;10280230;28;96261;-45
2023/12/26 21:22:23;;;;;;;;;;;15.90;65.00;;;;;;10297687;28;94530;-44
2023/12/26 21:27:25;;;;;;;;;;;15.90;64.90;;;;;;10267175;28;94563;-46
2023/12/26 21:32:27;;;;;;;;;;;15.90;64.90;;;;;;10275246;28;94135;-47
2023/12/26 21:37:29;;;;;;;;;;;15.90;65.00;;;;;;10269601;28;94665;-49
2023/12/26 21:42:31;;;;;;;;;;;15.90;64.90;;;;;;10249756;28;93381;-44
2023/12/26 21:47:32;;;;;;;;;;;15.90;64.80;;;;;;10249492;28;93481;-47
2023/12/26 21:52:34;;;;;;;;;;;15.90;64.70;;;;;;10284000;28;93667;-44
2023/12/26 21:57:36;;;;;;;;;;;15.90;64.70;;;;;;10264993;28;93353;-45
2023/12/26 22:02:41;;;;;;;;;;;15.90;64.70;;;;;;10273668;28;93982;-43
2023/12/26 22:07:43;;;;;;;;;;;15.90;64.60;;;;;;10251420;28;95855;-50
2023/12/26 22:12:45;;;;;;;;;;;15.90;64.60;;;;;;10270987;28;94515;-44
2023/12/26 22:17:47;;;;;;;;;;;15.90;64.70;;;;;;10258146;28;94565;-54
2023/12/26 22:22:49;;;;;;;;;;;15.90;64.50;;;;;;10257259;28;95700;-45
2023/12/26 22:27:50;;;;;;;;;;;15.80;64.40;;;;;;10254456;28;93993;-50
2023/12/26 22:32:52;;;;;;;;;;;15.80;64.40;;;;;;10268268;28;93347;-49
2023/12/26 22:37:54;;;;;;;;;;;15.80;64.40;;;;;;10272359;28;93515;-49
2023/12/26 22:42:56;;;;;;;;;;;15.80;64.40;;;;;;10269638;28;93358;-48
2023/12/26 22:47:58;;;;;;;;;;;15.80;64.30;;;;;;10267766;28;93928;-47
2023/12/26 22:53:00;;;;;;;;;;;15.80;64.40;;;;;;10276666;28;93572;-46
2023/12/26 22:58:02;;;;;;;;;;;15.80;64.40;;;;;;10280005;28;95936;-44
2023/12/26 23:03:04;;;;;;;;;;;15.80;64.40;;;;;;10287494;28;93766;-47
2023/12/26 23:08:06;;;;;;;;;;;15.80;64.50;;;;;;10286867;28;93532;-49
2023/12/26 23:13:08;;;;;;;;;;;15.70;64.10;;;;;;10274383;28;94327;-46
2023/12/26 23:18:12;;;;;;;;;;;15.70;63.60;;;;;;10279268;28;93761;-47
2023/12/26 23:23:14;;;;;;;;;;;15.80;63.30;;;;;;10266037;28;94389;-45
2023/12/26 23:28:16;;;;;;;;;;;15.70;62.90;;;;;;10286202;28;93834;-47
2023/12/26 23:33:18;;;;;;;;;;;15.80;62.50;;;;;;10304432;28;93689;-46
2023/12/26 23:38:19;;;;;;;;;;;15.80;62.30;;;;;;10278740;28;94813;-44
2023/12/26 23:43:21;;;;;;;;;;;15.80;61.90;;;;;;10277658;28;93959;-49
2023/12/26 23:48:23;;;;;;;;;;;15.80;61.70;;;;;;10285010;28;95625;-45
2023/12/26 23:53:25;;;;;;;;;;;15.70;61.50;;;;;;10276760;28;93442;-44
2023/12/26 23:58:26;;;;;;;;;;;15.70;62.00;;;;;;10278469;28;94544;-43
